IDBO2: Little River, Idabel, OK

                                SHEF ID:       IDBO2     Little River blw Lukfata Creek
STATION TYPE: Stream Gauge
Regulating: Stage = 27.50, Flow = 12738

PRECIP STAGE RIV-FLOW BAT-LOAD
in ft cfs volt
Ccp-Rev Ccp-Rev Ccp-Rev Ccp-Rev
(America/Chicago)
04/28 00:00 0.00 7.37 728 13.55
04/28 01:00 0.00 7.44 759 13.52
04/28 02:00 0.00 7.55 808 13.49
04/28 03:00 0.00 7.69 872 13.49
04/28 04:00 0.00 7.86 950 13.47
04/28 05:00 0.00 8.05 1040 13.45
04/28 06:00 0.00 8.24 1131 13.42
04/28 07:00 0.00 8.41 1214 13.42
04/28 08:00 0.00 8.56 1288 13.41
04/28 09:00 0.00 8.71 1363 13.41
04/28 10:00 0.01 8.81 1414 13.42
04/28 11:00 0.01 8.91 1465 13.42
04/28 12:00 0.14 9.01 1516 13.42
04/28 13:00 0.12 9.10 1563 13.41
04/28 14:00 0.00 9.15 1589 13.56
04/28 15:00 0.00 9.20 1615 13.77
04/28 16:00 0.00 9.24 1636 13.79
04/28 17:00 0.03 9.23 1630 13.75
04/28 18:00 0.07 -99999.00 12 13.72
04/28 19:00 0.48 9.40 1720 13.77
04/28 20:00 0.00 9.43 1736 13.78
04/28 21:00 0.00 9.48 1762 13.75
04/28 22:00 0.00 9.52 1784 13.72
04/28 23:00 0.00 9.56 1805 13.68
Data processed at Wed 29Apr2026 04:32 GMT

NOTICE: If you are parsing this page

Please convert to using our Data API. Starting early 2026 we will be migrating to: https://water.usace.army.mil with modern pages rendered in JavaScript. When this migration completes you will no longer be able to scrape this page! CWMSDataAPI (CDA)

Timeseries IDs (TSIDs)

TSIDs used from left to right in the data table
IDAB.Precip-Inc.Total.1Hour.1Hour.Ccp-Rev
IDAB.Stage.Inst.1Hour.0.Ccp-Rev
IDAB.Flow.Inst.1Hour.0.Ccp-Rev
IDAB.Volt-Battery Load.Inst.1Hour.0.Ccp-Rev

                            

All information presented herein is the property of the government of the United States of America and may be revised or deleted at any time without prior notice. Dissemination of this information without the expressed written consent of the Public Affairs Office, Tulsa District U.S. Army Corps of Engineers is strictly prohibited. These data are gathered electronically and, as presented, have NOT undergone any form of quality control. These data are NOT guaranteed to be valid or correct.